Time;durP1;ratioP1;P1;durP2;ratioP2;P2;SDS_P1;SDS_P2;PMS_P1;PMS_P2;Temp;Humidity;BMP_temperature;BMP_pressure;BME280_temperature;BME280_humidity;BME280_pressure;Samples;Min_cycle;Max_cycle;Signal;HPM_P1;HPM_P2
2021/10/01 00:01:47;;;;;;;18.85;5.43;;;29.20;83.00;;;;;;5102485;28;20032;-45
2021/10/01 00:04:14;;;;;;;20.08;5.30;;;29.20;83.00;;;;;;5103669;28;20016;-46
2021/10/01 00:06:43;;;;;;;18.73;4.18;;;29.10;82.90;;;;;;5103767;28;20264;-44
2021/10/01 00:09:10;;;;;;;17.52;3.78;;;29.10;83.00;;;;;;5103278;28;20327;-45
2021/10/01 00:11:36;;;;;;;14.38;4.20;;;29.10;83.10;;;;;;5102377;28;20060;-43
2021/10/01 00:14:03;;;;;;;14.25;3.70;;;29.10;83.10;;;;;;5103444;28;20087;-46
2021/10/01 00:16:30;;;;;;;13.70;4.07;;;29.10;83.10;;;;;;5103537;28;20020;-45
2021/10/01 00:18:56;;;;;;;15.30;3.85;;;29.10;83.30;;;;;;5103535;28;20186;-45
2021/10/01 00:21:23;;;;;;;15.10;4.18;;;29.10;83.30;;;;;;5105161;28;20324;-45
2021/10/01 00:23:50;;;;;;;15.18;5.45;;;29.10;83.30;;;;;;5107128;28;20024;-44
2021/10/01 00:26:16;;;;;;;19.15;5.35;;;29.10;83.40;;;;;;5106200;28;20211;-42
2021/10/01 00:28:43;;;;;;;14.73;6.28;;;29.10;83.50;;;;;;5107097;28;20020;-43
2021/10/01 00:31:10;;;;;;;16.83;6.05;;;29.10;83.60;;;;;;5107355;28;20221;-44
2021/10/01 00:33:51;;;;;;;14.60;5.80;;;29.10;83.70;;;;;;5107325;28;20012;-44
2021/10/01 00:36:18;;;;;;;14.73;5.60;;;29.10;83.70;;;;;;5107128;28;20044;-42
2021/10/01 00:38:44;;;;;;;13.27;5.47;;;29.10;83.90;;;;;;5107062;28;20047;-46
2021/10/01 00:41:14;;;;;;;10.95;5.45;;;29.10;84.00;;;;;;5107164;28;20031;-44
2021/10/01 00:43:42;;;;;;;7.75;4.70;;;29.10;84.20;;;;;;5107185;28;20024;-43
2021/10/01 00:46:09;;;;;;;8.13;4.30;;;29.10;84.20;;;;;;5105821;28;20247;-45
2021/10/01 00:48:36;;;;;;;10.32;4.07;;;29.10;84.30;;;;;;5105961;28;20016;-44
2021/10/01 00:51:06;;;;;;;10.60;3.58;;;29.00;84.40;;;;;;5107437;28;20055;-45
2021/10/01 00:53:35;;;;;;;11.93;3.60;;;29.00;84.50;;;;;;5106783;28;20075;-43
2021/10/01 00:56:04;;;;;;;9.52;3.55;;;29.00;84.50;;;;;;5105835;28;20227;-46
2021/10/01 00:58:31;;;;;;;9.68;3.53;;;29.00;84.50;;;;;;5105962;28;20024;-50
2021/10/01 01:01:11;;;;;;;7.13;3.15;;;29.00;84.50;;;;;;5106874;28;20083;-45
2021/10/01 01:03:53;;;;;;;8.73;2.80;;;29.00;84.60;;;;;;5106499;28;20012;-49
2021/10/01 01:06:35;;;;;;;7.88;2.72;;;29.00;84.60;;;;;;5107256;28;20031;-44
2021/10/01 01:09:25;;;;;;;6.50;2.40;;;29.00;84.60;;;;;;5105405;28;20047;-44
2021/10/01 01:11:58;;;;;;;7.50;2.83;;;29.00;84.60;;;;;;5106677;28;20031;-46
2021/10/01 01:14:32;;;;;;;5.93;3.10;;;29.00;84.70;;;;;;5106158;28;20007;-44
2021/10/01 01:17:03;;;;;;;6.07;2.90;;;29.00;84.70;;;;;;5106125;28;20077;-44
2021/10/01 01:19:47;;;;;;;4.53;2.50;;;29.00;84.70;;;;;;5106087;28;20012;-44
2021/10/01 01:22:42;;;;;;;7.60;2.60;;;28.90;84.70;;;;;;5105796;28;20036;-44
2021/10/01 01:25:20;;;;;;;13.10;4.72;;;28.90;84.80;;;;;;5106027;28;20032;-45
2021/10/01 01:28:34;;;;;;;7.00;2.92;;;28.90;84.90;;;;;;5106124;28;20024;-44
2021/10/01 01:31:15;;;;;;;7.22;3.00;;;28.90;85.00;;;;;;5100001;28;20058;-45
2021/10/01 01:33:45;;;;;;;6.78;2.40;;;28.90;85.00;;;;;;5105242;28;20051;-44
2021/10/01 01:36:14;;;;;;;5.55;2.60;;;28.90;85.20;;;;;;5105921;28;20216;-44
2021/10/01 01:38:48;;;;;;;7.40;2.50;;;28.90;85.20;;;;;;5105457;28;20088;-43
2021/10/01 01:41:17;;;;;;;7.28;2.35;;;28.90;85.20;;;;;;5105681;28;20065;-44
2021/10/01 01:43:48;;;;;;;10.67;2.77;;;28.90;85.30;;;;;;5105458;28;20088;-44
2021/10/01 01:46:15;;;;;;;24.52;4.00;;;28.90;85.20;;;;;;5105698;28;20028;-44
2021/10/01 01:48:44;;;;;;;33.08;4.53;;;28.90;85.10;;;;;;5105393;28;20027;-44
2021/10/01 01:51:15;;;;;;;47.10;6.43;;;28.90;85.30;;;;;;5104159;28;20027;-46
2021/10/01 01:53:44;;;;;;;41.88;5.38;;;28.90;85.20;;;;;;5104388;28;20182;-49
2021/10/01 01:56:14;;;;;;;26.30;4.70;;;28.80;85.20;;;;;;5104354;28;20214;-43
2021/10/01 01:58:41;;;;;;;23.05;5.30;;;28.80;85.20;;;;;;5103986;28;20012;-46
2021/10/01 02:01:08;;;;;;;22.48;4.30;;;28.80;85.30;;;;;;5105323;28;20055;-45
2021/10/01 02:03:36;;;;;;;24.02;4.13;;;28.80;85.30;;;;;;5105382;28;20050;-44
2021/10/01 02:06:05;;;;;;;15.18;3.65;;;28.80;85.40;;;;;;5104969;28;20095;-44
2021/10/01 02:08:34;;;;;;;15.00;3.72;;;28.80;85.50;;;;;;5105160;28;20027;-47
2021/10/01 02:11:01;;;;;;;14.07;4.03;;;28.90;85.60;;;;;;5105033;28;20149;-43
2021/10/01 02:13:29;;;;;;;13.48;4.47;;;28.80;85.50;;;;;;5104823;28;20016;-45
2021/10/01 02:15:58;;;;;;;12.35;4.53;;;28.80;85.40;;;;;;5105149;28;20028;-44
2021/10/01 02:18:27;;;;;;;14.50;3.90;;;28.80;85.40;;;;;;5104850;28;20185;-45
2021/10/01 02:20:56;;;;;;;15.38;3.75;;;28.80;85.50;;;;;;5103688;28;20034;-43
2021/10/01 02:23:26;;;;;;;10.10;4.22;;;28.80;85.60;;;;;;5104911;28;20316;-42
2021/10/01 02:29:10;;;;;;;9.05;3.58;;;28.80;85.60;;;;;;5102911;28;20105;-44
2021/10/01 02:32:21;;;;;;;10.98;3.58;;;28.80;85.70;;;;;;5102905;28;20248;-46
2021/10/01 02:34:51;;;;;;;5.90;2.90;;;28.70;85.80;;;;;;5104378;28;20028;-48
2021/10/01 02:37:19;;;;;;;10.00;3.17;;;28.70;85.90;;;;;;5105100;28;20085;-44
2021/10/01 02:39:48;;;;;;;6.97;2.70;;;28.70;85.90;;;;;;5103152;28;20012;-45
2021/10/01 02:42:16;;;;;;;7.30;2.22;;;28.70;86.10;;;;;;5104619;28;20410;-45
2021/10/01 02:44:45;;;;;;;7.22;2.63;;;28.70;86.10;;;;;;5104029;28;20316;-47
2021/10/01 02:47:14;;;;;;;10.57;2.55;;;28.70;86.10;;;;;;5104915;28;20077;-45
2021/10/01 02:49:41;;;;;;;7.30;2.25;;;28.70;86.10;;;;;;5103353;28;20080;-47
2021/10/01 02:52:28;;;;;;;7.68;2.22;;;28.70;86.20;;;;;;5104477;28;20019;-47
2021/10/01 02:55:01;;;;;;;3.08;2.00;;;28.70;86.30;;;;;;5104414;28;20056;-46
2021/10/01 02:57:36;;;;;;;4.47;1.88;;;28.70;86.50;;;;;;5104134;28;20014;-44
2021/10/01 03:00:05;;;;;;;4.00;1.70;;;28.70;86.60;;;;;;5104386;28;20079;-46
2021/10/01 03:02:33;;;;;;;3.33;1.60;;;28.70;86.70;;;;;;5104230;28;20062;-45
2021/10/01 03:05:02;;;;;;;2.88;1.52;;;28.60;86.80;;;;;;5104061;28;20023;-44
2021/10/01 03:07:32;;;;;;;4.07;1.80;;;28.60;86.80;;;;;;5104124;28;20024;-45
2021/10/01 03:09:59;;;;;;;2.88;1.42;;;28.60;86.70;;;;;;5104120;28;20019;-46
2021/10/01 03:12:26;;;;;;;5.63;1.92;;;28.60;86.80;;;;;;5103916;28;20016;-44
2021/10/01 03:14:53;;;;;;;8.02;1.80;;;28.60;86.90;;;;;;5104060;28;20025;-43
2021/10/01 03:17:21;;;;;;;4.03;1.77;;;28.60;87.10;;;;;;5103981;28;20046;-46
2021/10/01 03:19:50;;;;;;;4.63;1.90;;;28.60;87.00;;;;;;5103861;28;20028;-44
2021/10/01 03:22:18;;;;;;;4.60;1.77;;;28.60;87.10;;;;;;5104042;28;20027;-43
2021/10/01 03:24:47;;;;;;;7.82;3.90;;;28.60;87.10;;;;;;5104113;28;20019;-45
2021/10/01 03:27:14;;;;;;;9.75;5.78;;;28.60;87.20;;;;;;5104051;28;20031;-45
2021/10/01 03:29:41;;;;;;;10.02;5.82;;;28.60;87.30;;;;;;5104490;28;20016;-44
2021/10/01 03:32:11;;;;;;;7.93;5.18;;;28.60;87.30;;;;;;5103948;28;20259;-43
2021/10/01 03:34:37;;;;;;;8.75;5.00;;;28.60;87.10;;;;;;5104397;28;20028;-43
2021/10/01 03:37:04;;;;;;;6.38;4.13;;;28.60;87.00;;;;;;5104072;28;20284;-44
2021/10/01 03:39:31;;;;;;;5.32;3.33;;;28.60;86.90;;;;;;5104422;28;20020;-46
2021/10/01 03:41:58;;;;;;;5.75;2.72;;;28.60;86.90;;;;;;5103871;28;20226;-43
2021/10/01 03:44:24;;;;;;;6.03;2.75;;;28.60;86.80;;;;;;5104245;28;20030;-43
2021/10/01 03:46:51;;;;;;;5.00;2.55;;;28.60;86.70;;;;;;5103887;28;20034;-44
2021/10/01 03:49:17;;;;;;;7.20;2.50;;;28.60;86.70;;;;;;5103584;28;20023;-42
2021/10/01 03:51:44;;;;;;;7.05;2.33;;;28.50;86.70;;;;;;5103694;28;20019;-45
2021/10/01 03:54:11;;;;;;;7.25;2.65;;;28.50;86.80;;;;;;5104143;28;20016;-44
2021/10/01 03:56:38;;;;;;;4.22;2.47;;;28.50;86.90;;;;;;5105904;28;20072;-44
2021/10/01 03:59:05;;;;;;;7.63;2.35;;;28.50;87.00;;;;;;5108041;28;20083;-49
2021/10/01 04:01:31;;;;;;;6.72;2.08;;;28.50;87.00;;;;;;5107533;28;20044;-45
2021/10/01 04:03:58;;;;;;;4.80;2.35;;;28.50;87.10;;;;;;5107792;28;20027;-45
2021/10/01 04:06:24;;;;;;;4.60;1.90;;;28.50;87.20;;;;;;5107669;28;20043;-46
2021/10/01 04:08:51;;;;;;;4.88;1.88;;;28.50;87.10;;;;;;5107966;28;20024;-44
2021/10/01 04:11:20;;;;;;;3.15;1.83;;;28.50;87.20;;;;;;5107270;28;20095;-42
2021/10/01 04:13:47;;;;;;;3.20;1.70;;;28.50;87.30;;;;;;5107686;28;20048;-45
2021/10/01 04:16:13;;;;;;;5.78;1.70;;;28.50;87.20;;;;;;5107373;28;20016;-43
2021/10/01 04:18:40;;;;;;;3.63;1.70;;;28.50;87.30;;;;;;5107394;28;20322;-43
2021/10/01 04:21:07;;;;;;;3.40;1.75;;;28.40;87.20;;;;;;5107373;28;20258;-44
2021/10/01 04:23:33;;;;;;;4.70;1.70;;;28.40;87.30;;;;;;5107499;28;20028;-46
2021/10/01 04:26:00;;;;;;;6.22;1.92;;;28.40;87.30;;;;;;5107020;28;20015;-43
2021/10/01 04:28:26;;;;;;;3.38;1.73;;;28.40;87.20;;;;;;5107403;28;20031;-44
2021/10/01 04:30:53;;;;;;;6.25;1.48;;;28.40;87.30;;;;;;5107025;28;20030;-48
2021/10/01 04:33:24;;;;;;;4.53;1.35;;;28.40;87.30;;;;;;5106856;28;20094;-47
2021/10/01 04:35:52;;;;;;;5.90;1.45;;;28.40;87.30;;;;;;5107309;28;20296;-44
2021/10/01 04:38:20;;;;;;;4.25;1.45;;;28.40;87.40;;;;;;5107110;28;20254;-44
2021/10/01 04:40:47;;;;;;;3.40;1.25;;;28.40;87.40;;;;;;5106797;28;20208;-48
2021/10/01 04:43:13;;;;;;;3.30;1.30;;;28.40;87.40;;;;;;5107121;28;20304;-45
2021/10/01 04:45:40;;;;;;;4.68;1.35;;;28.40;87.50;;;;;;5106836;28;20069;-44
2021/10/01 04:48:07;;;;;;;3.03;1.17;;;28.30;87.40;;;;;;5106795;28;20081;-43
2021/10/01 04:50:34;;;;;;;3.40;1.27;;;28.40;87.50;;;;;;5106748;28;20118;-47
2021/10/01 04:53:02;;;;;;;6.47;1.40;;;28.30;87.50;;;;;;5106835;28;20047;-49
2021/10/01 04:55:29;;;;;;;2.47;1.23;;;28.30;87.50;;;;;;5106476;28;20020;-45
2021/10/01 04:57:56;;;;;;;4.00;1.30;;;28.30;87.50;;;;;;5106809;28;20137;-45
2021/10/01 05:00:22;;;;;;;3.70;1.75;;;28.40;87.60;;;;;;5106384;28;20066;-45
2021/10/01 05:02:49;;;;;;;4.68;1.40;;;28.30;87.50;;;;;;5106445;28;20087;-43
2021/10/01 05:05:16;;;;;;;3.33;1.25;;;28.40;87.60;;;;;;5106468;28;20024;-43
2021/10/01 05:07:42;;;;;;;4.90;1.52;;;28.30;87.60;;;;;;5105381;28;20020;-47
2021/10/01 05:10:09;;;;;;;3.70;1.25;;;28.30;87.70;;;;;;5106108;28;20015;-46
2021/10/01 05:12:36;;;;;;;4.68;1.10;;;28.30;87.70;;;;;;5106333;28;20028;-47
2021/10/01 05:15:03;;;;;;;3.60;1.20;;;28.30;87.60;;;;;;5106290;28;20016;-50
2021/10/01 05:17:30;;;;;;;6.75;1.30;;;28.30;87.60;;;;;;5106060;28;20018;-50
2021/10/01 05:19:57;;;;;;;3.80;1.13;;;28.30;87.50;;;;;;5106156;28;20016;-45
2021/10/01 05:22:23;;;;;;;5.57;1.48;;;28.30;87.40;;;;;;5106036;28;20035;-45
2021/10/01 05:24:50;;;;;;;3.90;1.20;;;28.30;87.30;;;;;;5105991;28;20016;-47
2021/10/01 05:27:16;;;;;;;3.80;1.52;;;28.30;87.10;;;;;;5106057;28;20019;-50
2021/10/01 05:29:43;;;;;;;2.35;1.20;;;28.30;87.10;;;;;;5106475;28;20100;-50
2021/10/01 05:32:09;;;;;;;4.60;1.58;;;28.30;87.00;;;;;;5105781;28;20336;-45
2021/10/01 05:34:36;;;;;;;3.42;1.30;;;28.30;87.00;;;;;;5106378;28;20107;-48
2021/10/01 05:37:04;;;;;;;2.28;1.20;;;28.30;87.00;;;;;;5105832;28;20016;-47
2021/10/01 05:39:31;;;;;;;2.58;1.20;;;28.30;87.00;;;;;;5106232;28;20073;-44
2021/10/01 05:41:59;;;;;;;2.42;1.40;;;28.20;86.90;;;;;;5105675;28;20027;-45
2021/10/01 05:44:25;;;;;;;4.88;1.80;;;28.20;86.90;;;;;;5106109;28;20027;-45
2021/10/01 05:46:53;;;;;;;3.47;1.08;;;28.20;86.90;;;;;;5105873;28;20204;-44
2021/10/01 05:49:22;;;;;;;3.90;1.52;;;28.20;86.90;;;;;;5105899;28;20032;-43
2021/10/01 05:51:51;;;;;;;3.72;1.27;;;28.20;86.80;;;;;;5105777;28;20028;-46
2021/10/01 05:54:22;;;;;;;4.93;1.60;;;28.20;86.80;;;;;;5105753;28;20239;-47
2021/10/01 05:56:51;;;;;;;2.95;1.40;;;28.20;86.80;;;;;;5105584;28;20058;-43
2021/10/01 05:59:19;;;;;;;5.18;1.27;;;28.20;86.80;;;;;;5105594;28;20023;-44
2021/10/01 06:01:46;;;;;;;3.33;1.30;;;28.20;86.70;;;;;;5105226;28;20031;-44
2021/10/01 06:04:13;;;;;;;4.07;1.40;;;28.20;86.90;;;;;;5105699;28;20059;-45
2021/10/01 06:06:40;;;;;;;2.92;1.30;;;28.20;86.90;;;;;;5105277;28;20020;-44
2021/10/01 06:09:11;;;;;;;5.93;1.65;;;28.20;86.90;;;;;;5105448;28;20054;-43
2021/10/01 06:11:39;;;;;;;3.78;1.40;;;28.20;87.00;;;;;;5105390;28;20028;-43
2021/10/01 06:14:07;;;;;;;3.15;1.17;;;28.20;87.00;;;;;;5105470;28;20027;-44
2021/10/01 06:16:34;;;;;;;5.32;1.65;;;28.20;86.90;;;;;;5104904;28;20020;-43
2021/10/01 06:19:02;;;;;;;5.45;1.35;;;28.10;86.90;;;;;;5104702;28;20083;-44
2021/10/01 06:21:29;;;;;;;2.92;1.27;;;28.10;86.90;;;;;;5104960;28;20020;-44
2021/10/01 06:23:56;;;;;;;4.00;1.50;;;28.10;86.90;;;;;;5105137;28;20027;-43
2021/10/01 06:26:22;;;;;;;2.75;1.27;;;28.10;86.90;;;;;;5105015;28;20027;-43
2021/10/01 06:28:49;;;;;;;4.32;1.27;;;28.10;87.00;;;;;;5105146;28;20093;-45
2021/10/01 06:31:15;;;;;;;5.70;1.52;;;28.10;87.10;;;;;;5104645;28;20020;-43
2021/10/01 06:33:43;;;;;;;2.75;1.30;;;28.10;87.10;;;;;;5105043;28;20020;-43
2021/10/01 06:36:12;;;;;;;4.93;1.50;;;28.10;87.10;;;;;;5104751;28;20079;-43
2021/10/01 06:38:39;;;;;;;8.35;1.35;;;28.10;87.10;;;;;;5104756;28;20034;-47
2021/10/01 06:41:05;;;;;;;5.22;1.48;;;28.10;87.10;;;;;;5104653;28;20056;-44
2021/10/01 06:43:32;;;;;;;4.78;1.73;;;28.10;87.30;;;;;;5104838;28;20069;-46
2021/10/01 06:45:59;;;;;;;3.25;1.38;;;28.10;87.30;;;;;;5104407;28;20020;-44
2021/10/01 08:19:09;;;;;;;4.43;1.20;;;27.80;87.20;;;;;;5107713;28;20358;-49
2021/10/01 08:21:36;;;;;;;3.42;1.23;;;27.80;87.30;;;;;;5107259;28;20066;-53
2021/10/01 08:24:03;;;;;;;4.10;1.20;;;27.80;87.40;;;;;;5107648;28;20058;-49
2021/10/01 08:26:30;;;;;;;3.97;1.17;;;27.80;87.40;;;;;;5107232;28;20016;-47
2021/10/01 08:28:57;;;;;;;5.00;1.30;;;27.80;87.30;;;;;;5107509;28;20319;-46
2021/10/01 08:31:27;;;;;;;4.85;1.40;;;27.80;87.30;;;;;;5107272;28;20024;-45
2021/10/01 08:33:54;;;;;;;2.78;1.00;;;27.80;87.40;;;;;;5107547;28;20089;-43
2021/10/01 08:36:21;;;;;;;3.60;1.15;;;27.80;87.40;;;;;;5107010;28;20054;-44
2021/10/01 08:38:48;;;;;;;3.97;1.30;;;27.80;87.40;;;;;;5107351;28;20243;-44
2021/10/01 08:41:14;;;;;;;4.53;1.13;;;27.80;87.40;;;;;;5106997;28;20020;-44
2021/10/01 08:43:42;;;;;;;4.85;1.30;;;27.80;87.40;;;;;;5107143;28;20296;-44
2021/10/01 08:46:11;;;;;;;4.28;1.88;;;27.80;87.50;;;;;;5106872;28;20336;-45
2021/10/01 08:48:38;;;;;;;8.13;3.78;;;27.80;87.60;;;;;;5106952;28;20062;-44
2021/10/01 08:51:10;;;;;;;11.30;4.63;;;27.80;87.60;;;;;;5106604;28;20027;-43
2021/10/01 08:53:37;;;;;;;10.02;4.43;;;27.80;87.60;;;;;;5107004;28;20020;-44
2021/10/01 08:56:04;;;;;;;10.90;4.78;;;27.80;87.60;;;;;;5106692;28;20035;-44
2021/10/01 08:58:31;;;;;;;9.73;4.55;;;27.80;87.70;;;;;;5106692;28;20028;-41
2021/10/01 09:00:59;;;;;;;10.07;4.85;;;27.80;87.70;;;;;;5106570;28;20058;-41
2021/10/01 09:03:26;;;;;;;12.15;4.15;;;27.80;87.80;;;;;;5106824;28;20061;-42
2021/10/01 09:05:53;;;;;;;11.73;4.75;;;27.80;87.90;;;;;;5106313;28;20023;-43
2021/10/01 09:08:25;;;;;;;10.18;4.50;;;27.70;87.90;;;;;;5106609;28;20032;-45
2021/10/01 09:10:59;;;;;;;;;;;27.80;88.00;;;;;;5106744;28;20070;-46
2021/10/01 09:13:27;;;;;;;9.13;3.55;;;27.70;88.00;;;;;;5106405;28;19915;-45
2021/10/01 09:16:06;;;;;;;7.35;3.67;;;27.70;88.00;;;;;;5106302;28;20320;-46
2021/10/01 09:18:36;;;;;;;5.47;3.10;;;27.70;88.00;;;;;;5106334;28;20022;-48
2021/10/01 09:21:08;;;;;;;6.95;2.92;;;27.70;87.90;;;;;;5106164;28;20365;-42
2021/10/01 09:23:42;;;;;;;7.32;3.03;;;27.70;87.90;;;;;;5106351;28;20251;-46
2021/10/01 09:26:14;;;;;;;5.85;3.00;;;27.70;87.90;;;;;;5106129;28;20032;-46
2021/10/01 09:28:58;;;;;;;7.13;3.17;;;27.70;87.90;;;;;;5106215;28;20035;-45
2021/10/01 09:31:36;;;;;;;6.57;2.90;;;27.70;87.80;;;;;;5105886;28;20038;-48
2021/10/01 09:34:10;;;;;;;6.95;2.80;;;27.70;87.90;;;;;;5105809;28;20309;-46
2021/10/01 09:36:38;;;;;;;6.05;2.72;;;27.70;87.90;;;;;;5106372;28;20020;-46
2021/10/01 09:39:05;;;;;;;7.70;2.67;;;27.70;88.00;;;;;;5106300;28;20058;-43
2021/10/01 09:41:35;;;;;;;8.48;2.65;;;27.70;88.00;;;;;;5105729;28;20027;-44
2021/10/01 09:44:09;;;;;;;6.15;2.42;;;27.70;88.00;;;;;;5106154;28;20043;-44
2021/10/01 09:46:46;;;;;;;4.75;2.13;;;27.70;88.00;;;;;;5105968;28;20028;-44
2021/10/01 09:49:16;;;;;;;7.30;2.05;;;27.70;88.00;;;;;;5105799;28;20016;-50
2021/10/01 09:51:55;;;;;;;5.50;2.33;;;27.70;87.90;;;;;;5105467;28;20320;-48
2021/10/01 09:54:24;;;;;;;6.65;1.90;;;27.70;88.00;;;;;;5105330;28;20028;-42
2021/10/01 09:56:52;;;;;;;6.10;1.90;;;27.70;88.00;;;;;;5105452;28;20066;-43
2021/10/01 09:59:19;;;;;;;7.18;2.38;;;27.70;88.10;;;;;;5105813;28;20016;-43
2021/10/01 10:02:07;;;;;;;4.85;1.80;;;27.70;88.00;;;;;;5105183;28;20083;-45
2021/10/01 10:04:45;;;;;;;3.47;1.60;;;27.70;88.20;;;;;;5105817;28;20040;-43
2021/10/01 10:07:24;;;;;;;5.05;1.77;;;27.70;88.20;;;;;;5105223;28;20324;-45
2021/10/01 10:10:04;;;;;;;2.58;1.58;;;27.70;88.20;;;;;;5105183;28;20066;-44
2021/10/01 10:12:41;;;;;;;4.45;1.58;;;27.70;88.30;;;;;;5105097;28;20079;-46
2021/10/01 10:15:18;;;;;;;4.82;1.80;;;27.70;88.40;;;;;;5105171;28;20032;-44
2021/10/01 10:17:52;;;;;;;7.57;2.17;;;27.70;88.40;;;;;;5105104;28;20028;-43
2021/10/01 10:20:20;;;;;;;7.68;2.88;;;27.70;88.40;;;;;;5105279;28;20316;-45
2021/10/01 10:22:47;;;;;;;9.10;2.80;;;27.70;88.50;;;;;;5104866;28;20304;-44
2021/10/01 10:25:13;;;;;;;7.43;2.85;;;27.60;88.50;;;;;;5105056;28;20292;-45
2021/10/01 10:27:40;;;;;;;9.48;2.70;;;27.60;88.50;;;;;;5104896;28;20020;-44
2021/10/01 10:30:08;;;;;;;7.53;2.67;;;27.60;88.60;;;;;;5104663;28;20189;-43
2021/10/01 10:32:34;;;;;;;6.97;2.47;;;27.60;88.60;;;;;;5104785;28;20316;-48
2021/10/01 10:35:04;;;;;;;10.20;3.28;;;27.60;88.60;;;;;;5104725;28;20204;-43
2021/10/01 10:37:47;;;;;;;10.88;2.50;;;27.60;88.60;;;;;;5104531;28;20356;-43
2021/10/01 10:40:16;;;;;;;8.15;2.78;;;27.60;88.70;;;;;;5104735;28;20020;-47
2021/10/01 10:42:47;;;;;;;6.97;2.42;;;27.60;88.60;;;;;;5104492;28;20020;-43
2021/10/01 10:45:25;;;;;;;11.70;2.70;;;27.60;88.80;;;;;;5104643;28;20331;-47
2021/10/01 10:47:56;;;;;;;8.82;2.55;;;27.60;88.70;;;;;;5104583;28;20024;-44
2021/10/01 10:50:26;;;;;;;8.57;2.65;;;27.60;88.80;;;;;;5104360;28;20031;-42
2021/10/01 10:53:09;;;;;;;14.48;3.58;;;27.50;89.20;;;;;;5104495;28;20020;-43
2021/10/01 10:55:53;;;;;;;19.17;9.48;;;27.50;89.50;;;;;;5104344;28;20423;-45
2021/10/01 11:01:20;;;;;;;15.00;5.72;;;27.40;89.70;;;;;;5104073;28;20048;-45
2021/10/01 11:03:51;;;;;;;11.52;6.18;;;27.40;90.00;;;;;;5104402;28;20024;-44
2021/10/01 11:06:18;;;;;;;16.55;7.40;;;27.40;90.00;;;;;;5103421;28;20209;-48
2021/10/01 11:08:50;;;;;;;15.95;6.38;;;27.40;90.10;;;;;;5104492;28;20095;-48
2021/10/01 11:11:28;;;;;;;;;;;27.30;90.10;;;;;;5104382;28;20031;-46
2021/10/01 11:14:20;;;;;;;13.13;4.78;;;27.30;90.10;;;;;;5103038;28;20138;-49
2021/10/01 11:17:07;;;;;;;20.93;4.33;;;27.30;90.10;;;;;;5104099;28;20034;-47
2021/10/01 11:19:37;;;;;;;13.77;3.83;;;27.30;90.20;;;;;;5103448;28;20601;-46
2021/10/01 11:22:25;;;;;;;12.75;3.75;;;27.30;90.10;;;;;;5104226;28;20125;-49
2021/10/01 11:25:23;;;;;;;13.95;3.88;;;27.30;90.20;;;;;;5102795;28;20028;-46
2021/10/01 11:27:54;;;;;;;11.05;3.97;;;27.30;90.20;;;;;;5104114;28;20209;-45
2021/10/01 11:30:23;;;;;;;14.70;5.30;;;27.30;90.20;;;;;;5102849;28;20035;-44
2021/10/01 11:32:50;;;;;;;14.38;4.57;;;27.30;90.20;;;;;;5104058;28;20035;-42
2021/10/01 11:35:17;;;;;;;11.25;4.20;;;27.30;90.20;;;;;;5102672;28;20212;-43
2021/10/01 11:37:48;;;;;;;16.77;3.80;;;27.30;90.00;;;;;;5103939;28;20032;-48
2021/10/01 11:40:30;;;;;;;11.05;3.25;;;27.30;89.50;;;;;;5103932;28;20019;-44
2021/10/01 11:42:59;;;;;;;7.03;2.53;;;27.30;89.40;;;;;;5104156;28;20093;-46
2021/10/01 11:45:32;;;;;;;9.00;3.03;;;27.30;89.10;;;;;;5103810;28;20024;-44
2021/10/01 11:48:02;;;;;;;10.40;2.75;;;27.30;89.00;;;;;;5103706;28;20020;-47
2021/10/01 11:50:45;;;;;;;5.10;2.00;;;27.30;88.90;;;;;;5103638;28;20016;-43
2021/10/01 11:53:24;;;;;;;8.13;2.63;;;27.30;88.90;;;;;;5103811;28;20212;-45
2021/10/01 11:56:04;;;;;;;5.80;2.20;;;27.30;88.90;;;;;;5103757;28;20038;-44
2021/10/01 11:58:33;;;;;;;7.30;2.40;;;27.30;89.00;;;;;;5103786;28;20062;-43
2021/10/01 12:01:09;;;;;;;13.57;2.65;;;27.30;89.10;;;;;;5103634;28;20051;-44
2021/10/01 12:03:46;;;;;;;10.02;3.05;;;27.30;89.30;;;;;;5103857;28;20216;-43
2021/10/01 12:06:17;;;;;;;8.02;2.80;;;27.40;89.40;;;;;;5103573;28;20312;-43
2021/10/01 12:08:51;;;;;;;11.02;2.60;;;27.40;89.50;;;;;;5103886;28;20028;-45
2021/10/01 12:11:25;;;;;;;6.78;2.45;;;27.40;89.40;;;;;;5103534;28;20046;-46
2021/10/01 12:13:51;;;;;;;11.07;2.30;;;27.40;89.40;;;;;;5104832;28;20291;-45
2021/10/01 12:16:18;;;;;;;6.63;2.00;;;27.40;89.30;;;;;;5102417;28;20043;-49
2021/10/01 12:18:57;;;;;;;11.48;1.95;;;27.40;89.20;;;;;;5107680;28;20034;-45
2021/10/01 12:21:28;;;;;;;12.02;2.00;;;27.40;89.20;;;;;;5107595;28;20020;-44
2021/10/01 12:24:12;;;;;;;7.00;1.80;;;27.40;89.20;;;;;;5107682;28;20292;-46
2021/10/01 12:26:44;;;;;;;6.97;1.92;;;27.40;89.20;;;;;;5107310;28;20562;-44
2021/10/01 12:29:13;;;;;;;;;;;27.40;89.30;;;;;;5107907;28;20089;-45
2021/10/01 12:31:43;;;;;;;14.23;3.00;;;27.40;89.50;;;;;;5107657;28;19943;-46
2021/10/01 12:34:16;;;;;;;10.15;2.80;;;27.50;89.60;;;;;;5106159;28;20035;-46
2021/10/01 12:36:44;;;;;;;9.23;2.70;;;27.40;89.60;;;;;;5105944;28;20016;-46
2021/10/01 12:39:11;;;;;;;9.73;2.05;;;27.50;89.70;;;;;;5107375;28;20028;-49
2021/10/01 12:41:38;;;;;;;7.07;2.15;;;27.50;89.60;;;;;;5106587;28;20039;-49
2021/10/01 12:44:10;;;;;;;5.82;2.08;;;27.50;89.60;;;;;;5107313;28;20024;-43
2021/10/01 12:46:52;;;;;;;6.53;1.60;;;27.50;89.50;;;;;;5106877;28;20061;-43
2021/10/01 12:49:24;;;;;;;10.00;2.03;;;27.50;89.20;;;;;;5106579;28;20034;-43
2021/10/01 12:52:12;;;;;;;11.20;1.98;;;27.50;89.30;;;;;;5106644;28;20019;-44
2021/10/01 12:54:41;;;;;;;7.18;2.03;;;27.60;89.30;;;;;;5107231;28;20024;-44
2021/10/01 12:57:14;;;;;;;7.07;2.00;;;27.50;89.20;;;;;;5106776;28;20018;-44
2021/10/01 12:59:49;;;;;;;8.88;2.42;;;27.50;89.20;;;;;;5106664;28;20055;-44
2021/10/01 13:02:24;;;;;;;6.95;2.45;;;27.60;89.30;;;;;;5106343;28;20020;-44
2021/10/01 13:05:18;;;;;;;10.25;2.65;;;27.60;89.30;;;;;;5106193;28;20028;-47
2021/10/01 13:08:13;;;;;;;10.15;2.30;;;27.60;89.80;;;;;;5106356;28;20087;-47
2021/10/01 13:10:57;;;;;;;13.23;2.10;;;27.60;89.20;;;;;;5106494;28;20023;-44
2021/10/01 13:13:29;;;;;;;7.20;2.35;;;27.60;89.10;;;;;;5106373;28;20027;-47
2021/10/01 13:15:57;;;;;;;6.85;1.90;;;27.60;89.00;;;;;;5105174;28;20020;-44
2021/10/01 13:18:35;;;;;;;8.02;2.30;;;27.60;88.80;;;;;;5106285;28;20298;-43
2021/10/01 13:21:15;;;;;;;6.60;2.00;;;27.60;88.60;;;;;;5106275;28;20016;-47
2021/10/01 13:23:55;;;;;;;8.07;2.47;;;27.70;88.60;;;;;;5106199;28;20095;-46
2021/10/01 13:26:23;;;;;;;9.88;2.05;;;27.70;88.60;;;;;;5106012;28;20335;-43
2021/10/01 13:29:03;;;;;;;2.95;1.55;;;27.70;88.50;;;;;;5105492;28;20216;-45
2021/10/01 13:31:38;;;;;;;5.85;1.80;;;27.70;88.40;;;;;;5105584;28;20022;-51
2021/10/01 13:34:04;;;;;;;11.63;1.90;;;27.70;88.40;;;;;;5105959;28;20054;-53
2021/10/01 13:36:32;;;;;;;7.70;2.25;;;27.70;88.40;;;;;;5105535;28;20048;-51
2021/10/01 13:38:59;;;;;;;11.15;2.38;;;27.70;88.40;;;;;;5105918;28;20024;-51
2021/10/01 13:41:26;;;;;;;5.30;2.00;;;27.70;88.20;;;;;;5105591;28;20023;-52
2021/10/01 13:43:53;;;;;;;8.45;2.00;;;27.80;88.80;;;;;;5105874;28;20035;-49
2021/10/01 13:46:21;;;;;;;7.88;2.38;;;27.80;88.20;;;;;;5105461;28;20016;-49
2021/10/01 13:48:50;;;;;;;8.57;1.98;;;27.80;88.10;;;;;;5105518;28;20142;-52
2021/10/01 13:51:17;;;;;;;8.30;2.20;;;27.90;88.20;;;;;;5105265;28;20201;-46
2021/10/01 13:53:44;;;;;;;6.72;2.50;;;27.90;88.10;;;;;;5105748;28;20209;-50
2021/10/01 13:56:11;;;;;;;5.95;2.20;;;27.90;88.10;;;;;;5105268;28;20012;-53
2021/10/01 13:58:38;;;;;;;9.57;2.15;;;27.90;88.10;;;;;;5105371;28;20105;-52
2021/10/01 14:01:05;;;;;;;6.85;1.92;;;28.00;88.10;;;;;;5105121;28;20333;-47
2021/10/01 14:03:32;;;;;;;9.07;2.10;;;28.00;88.10;;;;;;5105381;28;20038;-45
2021/10/01 14:05:58;;;;;;;7.55;2.35;;;28.00;88.00;;;;;;5105135;28;20024;-50
2021/10/01 14:08:25;;;;;;;5.97;1.90;;;28.00;88.00;;;;;;5105561;28;20035;-49
2021/10/01 14:10:52;;;;;;;4.28;2.10;;;28.10;87.90;;;;;;5105351;28;20070;-51
2021/10/01 14:13:20;;;;;;;5.57;2.10;;;28.10;87.80;;;;;;5105250;28;20020;-45
2021/10/01 14:15:49;;;;;;;9.43;2.05;;;28.20;87.70;;;;;;5104800;28;20036;-43
2021/10/01 14:18:17;;;;;;;8.65;2.15;;;28.20;87.60;;;;;;5104972;28;20115;-45
2021/10/01 14:20:44;;;;;;;7.00;2.00;;;28.20;87.40;;;;;;5104906;28;20069;-48
2021/10/01 14:23:11;;;;;;;5.93;2.00;;;28.20;87.40;;;;;;5105380;28;20028;-44
2021/10/01 14:25:38;;;;;;;7.00;1.92;;;28.30;87.50;;;;;;5104946;28;20208;-45
2021/10/01 14:28:07;;;;;;;8.40;1.88;;;28.30;87.50;;;;;;5104894;28;20100;-46
2021/10/01 14:30:36;;;;;;;6.13;1.92;;;28.40;87.50;;;;;;5104698;28;20255;-46
2021/10/01 14:33:03;;;;;;;6.40;1.83;;;28.30;87.20;;;;;;5104984;28;20024;-54
2021/10/01 14:35:30;;;;;;;4.13;1.60;;;28.40;87.10;;;;;;5104466;28;20012;-47
2021/10/01 14:37:57;;;;;;;7.82;2.10;;;28.40;87.10;;;;;;5104812;28;20024;-46
2021/10/01 14:40:23;;;;;;;6.03;1.73;;;28.40;87.00;;;;;;5104417;28;20061;-58